JBU717 KBOS-KJFK
Flight info
| Callsign | JBU717 |
|---|---|
| Flight time | 0h 39m |
| Altitude | 22000 |
| Route | SSOXS7 SSOXS BUZRD SEY PARCH4 |
| Aircraft | A320/M-SDE3FGHIRWY/LB1 |
Departure
| Time | 2026-05-09 00:04 |
|---|---|
| Airport | Boston Logan International Airport (KBOS) |
Arrival
| Time | 2026-05-09 00:44 |
|---|---|
| Airport | John F. Kennedy International Airport (KJFK) |
| Time | Latitude | Longitude | Altitude | Speed | Heading |
|---|---|---|---|---|---|
| 2026-05-08 23:42 | 42.36606 | -71.01363 | 28 ft | 0 kts | 291° |
| 2026-05-08 23:54 | 42.36605 | -71.01360 | 28 ft | 2 kts | 291° |
| 2026-05-08 23:54 | 42.36600 | -71.01341 | 28 ft | 2 kts | 291° |
| 2026-05-08 23:55 | 42.36591 | -71.01310 | 28 ft | 2 kts | 288° |
| 2026-05-08 23:55 | 42.36592 | -71.01291 | 28 ft | 2 kts | 232° |
| 2026-05-08 23:55 | 42.36600 | -71.01283 | 28 ft | 0 kts | 201° |
| 2026-05-08 23:55 | 42.36594 | -71.01286 | 28 ft | 4 kts | 203° |
| 2026-05-08 23:56 | 42.36557 | -71.01305 | 28 ft | 3 kts | 205° |
| 2026-05-08 23:56 | 42.36548 | -71.01311 | 28 ft | 0 kts | 207° |
| 2026-05-08 23:57 | 42.36548 | -71.01312 | 28 ft | 0 kts | 207° |
| 2026-05-08 23:57 | 42.36521 | -71.01329 | 28 ft | 9 kts | 205° |
| 2026-05-08 23:58 | 42.36456 | -71.01371 | 28 ft | 10 kts | 201° |
| 2026-05-08 23:58 | 42.36387 | -71.01394 | 28 ft | 9 kts | 167° |
| 2026-05-08 23:58 | 42.36341 | -71.01324 | 28 ft | 10 kts | 121° |
| 2026-05-08 23:58 | 42.36303 | -71.01241 | 28 ft | 11 kts | 121° |
| 2026-05-08 23:59 | 42.36251 | -71.01118 | 28 ft | 16 kts | 115° |
| 2026-05-08 23:59 | 42.36202 | -71.00972 | 28 ft | 17 kts | 114° |
| 2026-05-08 23:59 | 42.36152 | -71.00819 | 28 ft | 18 kts | 114° |
| 2026-05-08 23:59 | 42.36105 | -71.00653 | 28 ft | 18 kts | 108° |
| 2026-05-09 00:00 | 42.36061 | -71.00485 | 28 ft | 19 kts | 108° |
| 2026-05-09 00:00 | 42.36016 | -71.00307 | 28 ft | 20 kts | 110° |
| 2026-05-09 00:00 | 42.35970 | -71.00135 | 28 ft | 16 kts | 111° |
| 2026-05-09 00:00 | 42.35902 | -71.00006 | 28 ft | 17 kts | 136° |
| 2026-05-09 00:01 | 42.35813 | -70.99892 | 28 ft | 17 kts | 135° |
| 2026-05-09 00:01 | 42.35725 | -70.99769 | 28 ft | 17 kts | 135° |
| 2026-05-09 00:01 | 42.35636 | -70.99649 | 28 ft | 15 kts | 134° |
| 2026-05-09 00:01 | 42.35607 | -70.99609 | 28 ft | 0 kts | 136° |
| 2026-05-09 00:02 | 42.35603 | -70.99604 | 28 ft | 5 kts | 136° |
| 2026-05-09 00:02 | 42.35549 | -70.99533 | 28 ft | 12 kts | 135° |
| 2026-05-09 00:02 | 42.35491 | -70.99445 | 28 ft | 13 kts | 113° |
| 2026-05-09 00:03 | 42.35490 | -70.99381 | 28 ft | 0 kts | 78° |
| 2026-05-09 00:03 | 42.35492 | -70.99374 | 28 ft | 3 kts | 78° |
| 2026-05-09 00:03 | 42.35508 | -70.99262 | 28 ft | 10 kts | 72° |
| 2026-05-09 00:03 | 42.35554 | -70.99277 | 28 ft | 8 kts | 315° |
| 2026-05-09 00:04 | 42.35690 | -70.99465 | 28 ft | 60 kts | 314° |
| 2026-05-09 00:04 | 42.36162 | -71.00092 | 29 ft | 125 kts | 315° |
| 2026-05-09 00:04 | 42.36892 | -71.01059 | 264 ft | 154 kts | 313° |
| 2026-05-09 00:04 | 42.37658 | -71.02055 | 947 ft | 152 kts | 314° |
| 2026-05-09 00:05 | 42.38385 | -71.02986 | 1745 ft | 142 kts | 315° |
| 2026-05-09 00:05 | 42.38958 | -71.04050 | 2333 ft | 145 kts | 289° |
| 2026-05-09 00:05 | 42.39314 | -71.05375 | 2848 ft | 155 kts | 298° |
| 2026-05-09 00:05 | 42.39878 | -71.06659 | 3455 ft | 161 kts | 301° |
| 2026-05-09 00:06 | 42.40458 | -71.07991 | 4033 ft | 169 kts | 300° |
| 2026-05-09 00:06 | 42.40758 | -71.09564 | 4546 ft | 184 kts | 266° |
| 2026-05-09 00:06 | 42.40258 | -71.11198 | 5117 ft | 199 kts | 239° |
| 2026-05-09 00:06 | 42.39452 | -71.12828 | 5592 ft | 215 kts | 242° |
| 2026-05-09 00:07 | 42.38614 | -71.14668 | 5987 ft | 239 kts | 241° |
| 2026-05-09 00:07 | 42.37682 | -71.16612 | 6514 ft | 258 kts | 239° |
| 2026-05-09 00:07 | 42.36533 | -71.18578 | 7181 ft | 274 kts | 224° |
| 2026-05-09 00:07 | 42.34802 | -71.19715 | 8081 ft | 287 kts | 195° |
| 2026-05-09 00:08 | 42.32778 | -71.19640 | 9035 ft | 297 kts | 169° |
| 2026-05-09 00:08 | 42.30831 | -71.18712 | 9878 ft | 301 kts | 164° |
| 2026-05-09 00:08 | 42.28824 | -71.17677 | 10562 ft | 309 kts | 164° |
| 2026-05-09 00:08 | 42.26762 | -71.16572 | 10943 ft | 328 kts | 159° |
| 2026-05-09 00:09 | 42.24693 | -71.14996 | 11266 ft | 350 kts | 149° |
| 2026-05-09 00:09 | 42.22720 | -71.12893 | 11583 ft | 369 kts | 142° |
| 2026-05-09 00:09 | 42.20742 | -71.10541 | 12027 ft | 381 kts | 141° |
| 2026-05-09 00:09 | 42.18737 | -71.08129 | 12626 ft | 387 kts | 141° |
| 2026-05-09 00:10 | 42.16686 | -71.05694 | 13244 ft | 391 kts | 142° |
| 2026-05-09 00:10 | 42.14534 | -71.03350 | 13831 ft | 395 kts | 147° |
| 2026-05-09 00:10 | 42.12292 | -71.01203 | 14408 ft | 399 kts | 149° |
| 2026-05-09 00:10 | 42.09925 | -70.99145 | 14968 ft | 400 kts | 159° |
| 2026-05-09 00:11 | 42.07296 | -70.98196 | 15478 ft | 387 kts | 185° |
| 2026-05-09 00:11 | 42.04700 | -70.98769 | 16048 ft | 369 kts | 210° |
| 2026-05-09 00:11 | 42.02651 | -71.00675 | 16613 ft | 350 kts | 235° |
| 2026-05-09 00:11 | 42.01243 | -71.03328 | 17207 ft | 345 kts | 243° |
| 2026-05-09 00:12 | 41.99877 | -71.06004 | 17786 ft | 349 kts | 242° |
| 2026-05-09 00:12 | 41.98415 | -71.08710 | 18227 ft | 355 kts | 240° |
| 2026-05-09 00:12 | 41.96906 | -71.11398 | 18646 ft | 362 kts | 240° |
| 2026-05-09 00:12 | 41.95338 | -71.14111 | 19142 ft | 365 kts | 239° |
| 2026-05-09 00:13 | 41.93752 | -71.16816 | 19663 ft | 368 kts | 239° |
| 2026-05-09 00:13 | 41.92163 | -71.19499 | 20135 ft | 371 kts | 239° |
| 2026-05-09 00:13 | 41.90533 | -71.22233 | 20616 ft | 373 kts | 239° |
| 2026-05-09 00:13 | 41.88884 | -71.24987 | 21106 ft | 375 kts | 239° |
| 2026-05-09 00:14 | 41.87244 | -71.27714 | 21521 ft | 378 kts | 238° |
| 2026-05-09 00:14 | 41.85554 | -71.30521 | 21698 ft | 387 kts | 239° |
| 2026-05-09 00:14 | 41.83829 | -71.33382 | 21860 ft | 396 kts | 238° |
| 2026-05-09 00:14 | 41.82090 | -71.36264 | 21943 ft | 406 kts | 238° |
| 2026-05-09 00:15 | 41.80284 | -71.39250 | 21948 ft | 412 kts | 238° |
| 2026-05-09 00:15 | 41.78449 | -71.42272 | 21946 ft | 413 kts | 238° |
| 2026-05-09 00:15 | 41.76643 | -71.45240 | 21945 ft | 412 kts | 238° |
| 2026-05-09 00:15 | 41.74802 | -71.48263 | 21951 ft | 412 kts | 238° |
| 2026-05-09 00:16 | 41.72980 | -71.51252 | 21952 ft | 412 kts | 238° |
| 2026-05-09 00:16 | 41.71155 | -71.54247 | 21952 ft | 412 kts | 238° |
| 2026-05-09 00:16 | 41.69342 | -71.57219 | 21953 ft | 412 kts | 238° |
| 2026-05-09 00:16 | 41.67504 | -71.60225 | 21958 ft | 412 kts | 238° |
| 2026-05-09 00:17 | 41.65651 | -71.63258 | 21971 ft | 412 kts | 238° |
| 2026-05-09 00:17 | 41.63810 | -71.66267 | 21979 ft | 412 kts | 238° |
| 2026-05-09 00:17 | 41.61985 | -71.69249 | 21977 ft | 412 kts | 238° |
| 2026-05-09 00:17 | 41.60131 | -71.72273 | 21944 ft | 412 kts | 237° |
| 2026-05-09 00:18 | 41.58286 | -71.75281 | 21980 ft | 413 kts | 238° |
| 2026-05-09 00:18 | 41.56462 | -71.78260 | 21935 ft | 421 kts | 237° |
| 2026-05-09 00:18 | 41.54574 | -71.81338 | 21777 ft | 415 kts | 237° |
| 2026-05-09 00:18 | 41.52754 | -71.84278 | 21480 ft | 402 kts | 237° |
| 2026-05-09 00:19 | 41.50973 | -71.87152 | 21162 ft | 388 kts | 238° |
| 2026-05-09 00:19 | 41.49275 | -71.89900 | 20857 ft | 376 kts | 238° |
| 2026-05-09 00:19 | 41.47612 | -71.92594 | 20552 ft | 371 kts | 238° |
| 2026-05-09 00:19 | 41.45956 | -71.95280 | 20247 ft | 370 kts | 238° |
| 2026-05-09 00:20 | 41.44301 | -71.97966 | 19940 ft | 369 kts | 238° |
| 2026-05-09 00:20 | 41.42650 | -72.00639 | 19631 ft | 368 kts | 238° |
| 2026-05-09 00:20 | 41.41015 | -72.03284 | 19329 ft | 367 kts | 238° |
| 2026-05-09 00:20 | 41.39382 | -72.05924 | 19023 ft | 365 kts | 238° |
| 2026-05-09 00:21 | 41.37761 | -72.08537 | 18722 ft | 364 kts | 238° |
| 2026-05-09 00:21 | 41.36142 | -72.11147 | 18421 ft | 364 kts | 238° |
| 2026-05-09 00:21 | 41.34515 | -72.13769 | 18119 ft | 362 kts | 238° |
| 2026-05-09 00:21 | 41.32904 | -72.16361 | 17815 ft | 361 kts | 238° |
| 2026-05-09 00:22 | 41.31299 | -72.18938 | 17511 ft | 359 kts | 238° |
| 2026-05-09 00:22 | 41.29699 | -72.21506 | 17213 ft | 358 kts | 238° |
| 2026-05-09 00:22 | 41.28114 | -72.24048 | 16910 ft | 357 kts | 238° |
| 2026-05-09 00:22 | 41.26523 | -72.26596 | 16631 ft | 354 kts | 238° |
| 2026-05-09 00:23 | 41.24932 | -72.29142 | 16343 ft | 353 kts | 238° |
| 2026-05-09 00:23 | 41.23296 | -72.31763 | 16029 ft | 351 kts | 238° |
| 2026-05-09 00:23 | 41.21740 | -72.34249 | 15724 ft | 349 kts | 237° |
| 2026-05-09 00:23 | 41.20181 | -72.36740 | 15432 ft | 347 kts | 238° |
| 2026-05-09 00:24 | 41.18632 | -72.39211 | 15135 ft | 345 kts | 238° |
| 2026-05-09 00:24 | 41.17082 | -72.41682 | 14839 ft | 344 kts | 238° |
| 2026-05-09 00:24 | 41.15537 | -72.44144 | 14535 ft | 342 kts | 238° |
| 2026-05-09 00:24 | 41.14016 | -72.46562 | 14220 ft | 340 kts | 238° |
| 2026-05-09 00:25 | 41.12477 | -72.49009 | 13886 ft | 337 kts | 238° |
| 2026-05-09 00:25 | 41.10959 | -72.51421 | 13597 ft | 335 kts | 238° |
| 2026-05-09 00:25 | 41.09461 | -72.53808 | 13309 ft | 334 kts | 238° |
| 2026-05-09 00:25 | 41.07944 | -72.56218 | 12979 ft | 333 kts | 238° |
| 2026-05-09 00:26 | 41.06423 | -72.58629 | 12643 ft | 331 kts | 237° |
| 2026-05-09 00:26 | 41.04939 | -72.60980 | 12325 ft | 329 kts | 237° |
| 2026-05-09 00:26 | 41.03463 | -72.63319 | 12044 ft | 326 kts | 237° |
| 2026-05-09 00:26 | 41.02003 | -72.65627 | 11993 ft | 327 kts | 237° |
| 2026-05-09 00:27 | 41.00559 | -72.67902 | 11986 ft | 310 kts | 237° |
| 2026-05-09 00:27 | 40.99194 | -72.70045 | 12000 ft | 300 kts | 237° |
| 2026-05-09 00:27 | 40.97845 | -72.72176 | 11990 ft | 292 kts | 237° |
| 2026-05-09 00:27 | 40.96574 | -72.74175 | 11993 ft | 276 kts | 237° |
| 2026-05-09 00:28 | 40.95358 | -72.76090 | 11998 ft | 266 kts | 238° |
| 2026-05-09 00:28 | 40.94150 | -72.77983 | 11994 ft | 267 kts | 236° |
| 2026-05-09 00:28 | 40.92844 | -72.79757 | 11911 ft | 271 kts | 231° |
| 2026-05-09 00:28 | 40.91389 | -72.81379 | 11657 ft | 274 kts | 226° |
| 2026-05-09 00:29 | 40.89850 | -72.82881 | 11405 ft | 274 kts | 225° |
| 2026-05-09 00:29 | 40.88300 | -72.84372 | 11150 ft | 273 kts | 224° |
| 2026-05-09 00:29 | 40.86738 | -72.85868 | 10893 ft | 272 kts | 225° |
| 2026-05-09 00:29 | 40.85165 | -72.87377 | 10632 ft | 270 kts | 224° |
| 2026-05-09 00:30 | 40.83643 | -72.88837 | 10378 ft | 269 kts | 224° |
| 2026-05-09 00:30 | 40.82113 | -72.90302 | 10123 ft | 268 kts | 224° |
| 2026-05-09 00:30 | 40.80600 | -72.91753 | 9902 ft | 267 kts | 223° |
| 2026-05-09 00:30 | 40.79069 | -72.93215 | 9773 ft | 267 kts | 224° |
| 2026-05-09 00:31 | 40.77561 | -72.94659 | 9644 ft | 267 kts | 223° |
| 2026-05-09 00:31 | 40.76045 | -72.96107 | 9514 ft | 266 kts | 223° |
| 2026-05-09 00:31 | 40.74530 | -72.97555 | 9387 ft | 266 kts | 223° |
| 2026-05-09 00:31 | 40.73033 | -72.98983 | 9260 ft | 266 kts | 223° |
| 2026-05-09 00:32 | 40.71525 | -73.00422 | 9132 ft | 265 kts | 223° |
| 2026-05-09 00:32 | 40.70030 | -73.01911 | 9001 ft | 261 kts | 230° |
| 2026-05-09 00:32 | 40.68824 | -73.03640 | 8842 ft | 255 kts | 236° |
| 2026-05-09 00:32 | 40.67701 | -73.05462 | 8493 ft | 254 kts | 237° |
| 2026-05-09 00:33 | 40.66608 | -73.07288 | 8112 ft | 253 kts | 237° |
| 2026-05-09 00:33 | 40.65520 | -73.09131 | 7750 ft | 253 kts | 237° |
| 2026-05-09 00:33 | 40.64434 | -73.10976 | 7420 ft | 251 kts | 237° |
| 2026-05-09 00:33 | 40.63359 | -73.12817 | 7071 ft | 250 kts | 237° |
| 2026-05-09 00:34 | 40.62304 | -73.14629 | 6744 ft | 249 kts | 237° |
| 2026-05-09 00:34 | 40.61250 | -73.16454 | 6408 ft | 248 kts | 237° |
| 2026-05-09 00:34 | 40.60201 | -73.18285 | 6058 ft | 247 kts | 237° |
| 2026-05-09 00:34 | 40.59174 | -73.20094 | 5689 ft | 247 kts | 237° |
| 2026-05-09 00:35 | 40.58154 | -73.21912 | 5346 ft | 247 kts | 237° |
| 2026-05-09 00:35 | 40.57138 | -73.23742 | 5011 ft | 247 kts | 237° |
| 2026-05-09 00:35 | 40.56122 | -73.25589 | 4643 ft | 247 kts | 237° |
| 2026-05-09 00:35 | 40.55111 | -73.27447 | 4301 ft | 247 kts | 237° |
| 2026-05-09 00:36 | 40.54115 | -73.29302 | 4025 ft | 246 kts | 237° |
| 2026-05-09 00:36 | 40.53115 | -73.31173 | 4006 ft | 248 kts | 238° |
| 2026-05-09 00:36 | 40.52164 | -73.33057 | 4001 ft | 247 kts | 246° |
| 2026-05-09 00:36 | 40.51792 | -73.35240 | 3973 ft | 243 kts | 270° |
| 2026-05-09 00:37 | 40.51905 | -73.37461 | 3665 ft | 243 kts | 276° |
| 2026-05-09 00:37 | 40.52107 | -73.39668 | 3276 ft | 245 kts | 277° |
| 2026-05-09 00:37 | 40.52325 | -73.41902 | 3013 ft | 242 kts | 278° |
| 2026-05-09 00:37 | 40.52533 | -73.44035 | 2998 ft | 221 kts | 278° |
| 2026-05-09 00:38 | 40.52719 | -73.45947 | 2981 ft | 200 kts | 278° |
| 2026-05-09 00:38 | 40.52891 | -73.47695 | 3015 ft | 184 kts | 277° |
| 2026-05-09 00:38 | 40.53095 | -73.49368 | 3065 ft | 185 kts | 280° |
| 2026-05-09 00:38 | 40.53392 | -73.51040 | 3025 ft | 184 kts | 287° |
| 2026-05-09 00:39 | 40.53866 | -73.52611 | 3013 ft | 185 kts | 294° |
| 2026-05-09 00:39 | 40.54485 | -73.54115 | 3008 ft | 186 kts | 299° |
| 2026-05-09 00:39 | 40.55168 | -73.55596 | 3011 ft | 190 kts | 300° |
| 2026-05-09 00:39 | 40.55867 | -73.57104 | 3007 ft | 190 kts | 300° |
| 2026-05-09 00:40 | 40.56545 | -73.58587 | 2990 ft | 190 kts | 300° |
| 2026-05-09 00:40 | 40.57212 | -73.60063 | 2812 ft | 182 kts | 300° |
| 2026-05-09 00:40 | 40.57852 | -73.61485 | 2584 ft | 175 kts | 300° |
| 2026-05-09 00:41 | 40.59091 | -73.64241 | 2103 ft | 175 kts | 300° |
| 2026-05-09 00:41 | 40.59710 | -73.65616 | 1865 ft | 175 kts | 300° |
| 2026-05-09 00:41 | 40.60324 | -73.66978 | 1635 ft | 164 kts | 300° |
| 2026-05-09 00:41 | 40.60880 | -73.68208 | 1404 ft | 151 kts | 300° |
| 2026-05-09 00:42 | 40.61401 | -73.69362 | 1190 ft | 137 kts | 300° |
| 2026-05-09 00:42 | 40.61877 | -73.70427 | 992 ft | 131 kts | 300° |
| 2026-05-09 00:42 | 40.62343 | -73.71468 | 834 ft | 130 kts | 300° |
| 2026-05-09 00:42 | 40.62804 | -73.72493 | 670 ft | 130 kts | 300° |
| 2026-05-09 00:43 | 40.63276 | -73.73524 | 477 ft | 129 kts | 300° |
| 2026-05-09 00:43 | 40.63736 | -73.74537 | 319 ft | 130 kts | 300° |
| 2026-05-09 00:43 | 40.64201 | -73.75562 | 160 ft | 130 kts | 300° |
| 2026-05-09 00:43 | 40.64673 | -73.76586 | 19 ft | 126 kts | 301° |
| 2026-05-09 00:44 | 40.65050 | -73.77420 | 16 ft | 80 kts | 300° |
| 2026-05-09 00:44 | 40.65228 | -73.77817 | 16 ft | 26 kts | 286° |
| 2026-05-09 00:44 | 40.65186 | -73.77947 | 16 ft | 8 kts | 214° |
| 2026-05-09 00:44 | 40.65177 | -73.77956 | 16 ft | 2 kts | 213° |
| 2026-05-09 00:45 | 40.65145 | -73.77981 | 16 ft | 7 kts | 210° |
| 2026-05-09 00:45 | 40.65083 | -73.77972 | 16 ft | 12 kts | 127° |
| 2026-05-09 00:45 | 40.65027 | -73.77850 | 16 ft | 17 kts | 120° |
| 2026-05-09 00:45 | 40.64960 | -73.77702 | 15 ft | 19 kts | 120° |
| 2026-05-09 00:46 | 40.64890 | -73.77550 | 15 ft | 19 kts | 121° |
| 2026-05-09 00:46 | 40.64824 | -73.77406 | 16 ft | 13 kts | 125° |
| 2026-05-09 00:46 | 40.64736 | -73.77391 | 15 ft | 14 kts | 208° |
| 2026-05-09 00:46 | 40.64671 | -73.77438 | 15 ft | 9 kts | 189° |
| 2026-05-09 00:47 | 40.64635 | -73.77447 | 16 ft | 2 kts | 191° |